Map

Track Data

SID SEASON NUMBER BASIN SUBBASIN NAME ISO_TIME NATURE LAT LON WMO_WIND WMO_PRES WMO_AGENCY TRACK_TYPE DIST2LAND LANDFALL IFLAG USA_AGENCY USA_ATCF_ID USA_LAT USA_LON USA_RECORD USA_STATUS USA_WIND USA_PRES USA_SSHS USA_R34_NE USA_R34_SE USA_R34_SW USA_R34_NW USA_R50_NE USA_R50_SE USA_R50_SW USA_R50_NW USA_R64_NE USA_R64_SE USA_R64_SW USA_R64_NW USA_POCI USA_ROCI USA_RMW USA_EYE TOKYO_LAT TOKYO_LON TOKYO_GRADE TOKYO_WIND TOKYO_PRES TOKYO_R50_DIR TOKYO_R50_LONG TOKYO_R50_SHORT TOKYO_R30_DIR TOKYO_R30_LONG TOKYO_R30_SHORT TOKYO_LAND CMA_LAT CMA_LON CMA_CAT CMA_WIND CMA_PRES HKO_LAT HKO_LON HKO_CAT HKO_WIND HKO_PRES NEWDELHI_LAT NEWDELHI_LON NEWDELHI_GRADE NEWDELHI_WIND NEWDELHI_PRES NEWDELHI_CI NEWDELHI_DP NEWDELHI_POCI REUNION_LAT REUNION_LON REUNION_TYPE REUNION_WIND REUNION_PRES REUNION_TNUM REUNION_CI REUNION_RMW REUNION_R34_NE REUNION_R34_SE REUNION_R34_SW REUNION_R34_NW REUNION_R50_NE REUNION_R50_SE REUNION_R50_SW REUNION_R50_NW REUNION_R64_NE REUNION_R64_SE REUNION_R64_SW REUNION_R64_NW BOM_LAT BOM_LON BOM_TYPE BOM_WIND BOM_PRES BOM_TNUM BOM_CI BOM_RMW BOM_R34_NE BOM_R34_SE BOM_R34_SW BOM_R34_NW BOM_R50_NE BOM_R50_SE BOM_R50_SW BOM_R50_NW BOM_R64_NE BOM_R64_SE BOM_R64_SW BOM_R64_NW BOM_ROCI BOM_POCI BOM_EYE BOM_POS_METHOD BOM_PRES_METHOD NADI_LAT NADI_LON NADI_CAT NADI_WIND NADI_PRES WELLINGTON_LAT WELLINGTON_LON WELLINGTON_WIND WELLINGTON_PRES DS824_LAT DS824_LON DS824_STAGE DS824_WIND DS824_PRES TD9636_LAT TD9636_LON TD9636_STAGE TD9636_WIND TD9636_PRES TD9635_LAT TD9635_LON TD9635_WIND TD9635_PRES TD9635_ROCI NEUMANN_LAT NEUMANN_LON NEUMANN_CLASS NEUMANN_WIND NEUMANN_PRES MLC_LAT MLC_LON MLC_CLASS MLC_WIND MLC_PRES USA_GUST BOM_GUST BOM_GUST_PER REUNION_GUST REUNION_GUST_PER USA_SEAHGT USA_SEARAD_NE USA_SEARAD_SE USA_SEARAD_SW USA_SEARAD_NW STORM_SPEED STORM_DIR
1905255N20309 1905 38 NA NA NOT_NAMED 1905-09-11 12:00:00 TS 19.5000 -51.0000 35 hurdat_atl main 1456 1424 O_____________ hurdat_atl AL021905 19.5000 -51.0000 TS 35 0 10 280
1905255N20309 1905 38 NA NA NOT_NAMED 1905-09-11 15:00:00 TS 19.5876 -51.5300 main 1424 1387 P_____________ AL021905 19.5876 -51.5300 TS 35 0 11 281
1905255N20309 1905 38 NA NA NOT_NAMED 1905-09-11 18:00:00 TS 19.7000 -52.1000 35 hurdat_atl main 1387 1352 O_____________ hurdat_atl AL021905 19.7000 -52.1000 TS 35 0 12 283
1905255N20309 1905 38 NA NA NOT_NAMED 1905-09-11 21:00:00 TS 19.8501 -52.7224 main 1360 1303 P_____________ AL021905 19.8501 -52.7224 TS 35 0 12 285
1905255N20309 1905 38 NA NA NOT_NAMED 1905-09-12 00:00:00 TS 20.0000 -53.3000 35 hurdat_atl main 1303 1263 O_____________ hurdat_atl AL021905 20.0000 -53.3000 TS 35 0 10 285
1905255N20309 1905 38 NA NA NOT_NAMED 1905-09-12 03:00:00 TS 20.0996 -53.7228 main 1263 1223 P_____________ AL021905 20.0996 -53.7228 TS 35 0 8 285
1905255N20309 1905 38 NA NA NOT_NAMED 1905-09-12 06:00:00 TS 20.2000 -54.1000 35 hurdat_atl main 1223 1183 O_____________ hurdat_atl AL021905 20.2000 -54.1000 TS 35 0 8 287
1905255N20309 1905 38 NA NA NOT_NAMED 1905-09-12 09:00:00 TS 20.3274 -54.5352 main 1183 1135 P_____________ AL021905 20.3274 -54.5352 TS 37 0 9 290
1905255N20309 1905 38 NA NA NOT_NAMED 1905-09-12 12:00:00 TS 20.5000 -55.0000 40 hurdat_atl main 1135 1088 O_____________ hurdat_atl AL021905 20.5000 -55.0000 TS 40 0 10 295
1905255N20309 1905 38 NA NA NOT_NAMED 1905-09-12 15:00:00 TS 20.7425 -55.5073 main 1088 1045 P_____________ AL021905 20.7425 -55.5073 TS 40 0 11 298
1905255N20309 1905 38 NA NA NOT_NAMED 1905-09-12 18:00:00 TS 21.0000 -56.0000 40 hurdat_atl main 1045 1011 O_____________ hurdat_atl AL021905 21.0000 -56.0000 TS 40 0 10 298
1905255N20309 1905 38 NA NA NOT_NAMED 1905-09-12 21:00:00 TS 21.2074 -56.4302 main 1011 979 P_____________ AL021905 21.2074 -56.4302 TS 40 0 8 298
1905255N20309 1905 38 NA NA NOT_NAMED 1905-09-13 00:00:00 TS 21.4000 -56.8000 40 hurdat_atl main 979 957 O_____________ hurdat_atl AL021905 21.4000 -56.8000 TS 40 0 8 302
1905255N20309 1905 38 NA NA NOT_NAMED 1905-09-13 03:00:00 TS 21.6074 -57.1226 main 957 936 P_____________ AL021905 21.6074 -57.1226 TS 42 0 7 306
1905255N20309 1905 38 NA NA NOT_NAMED 1905-09-13 06:00:00 TS 21.8000 -57.4000 45 hurdat_atl main 936 917 O_____________ hurdat_atl AL021905 21.8000 -57.4000 TS 45 0 6 305
1905255N20309 1905 38 NA NA NOT_NAMED 1905-09-13 09:00:00 TS 21.9650 -57.6651 main 917 903 P_____________ AL021905 21.9650 -57.6651 TS 47 0 6 303
1905255N20309 1905 38 NA NA NOT_NAMED 1905-09-13 12:00:00 TS 22.1000 -57.9000 50 hurdat_atl main 903 889 O_____________ hurdat_atl AL021905 22.1000 -57.9000 TS 50 0 5 299
1905255N20309 1905 38 NA NA NOT_NAMED 1905-09-13 15:00:00 TS 22.2000 -58.1151 main 889 876 P_____________ AL021905 22.2000 -58.1151 TS 50 0 4 298
1905255N20309 1905 38 NA NA NOT_NAMED 1905-09-13 18:00:00 TS 22.3000 -58.3000 50 hurdat_atl main 876 864 O_____________ hurdat_atl AL021905 22.3000 -58.3000 TS 50 0 4 307
1905255N20309 1905 38 NA NA NOT_NAMED 1905-09-13 21:00:00 TS 22.4425 -58.4650 main 864 861 P_____________ AL021905 22.4425 -58.4650 TS 50 0 4 317
1905255N20309 1905 38 NA NA NOT_NAMED 1905-09-14 00:00:00 TS 22.6000 -58.6000 50 hurdat_atl main 866 864 O_____________ hurdat_atl AL021905 22.6000 -58.6000 TS 50 0 4 325
1905255N20309 1905 38 NA NA NOT_NAMED 1905-09-14 03:00:00 TS 22.7500 -58.7001 main 864 861 P_____________ AL021905 22.7500 -58.7001 TS 50 0 4 329
1905255N20309 1905 38 NA NA NOT_NAMED 1905-09-14 06:00:00 TS 22.9000 -58.8000 50 hurdat_atl main 867 859 O_____________ hurdat_atl AL021905 22.9000 -58.8000 TS 50 0 4 321
1905255N20309 1905 38 NA NA NOT_NAMED 1905-09-14 09:00:00 TS 23.0275 -58.9426 main 865 855 P_____________ AL021905 23.0275 -58.9426 TS 47 0 4 317
1905255N20309 1905 38 NA NA NOT_NAMED 1905-09-14 12:00:00 TS 23.2000 -59.1000 45 hurdat_atl main 862 861 O_____________ hurdat_atl AL021905 23.2000 -59.1000 TS 45 0 5 328
1905255N20309 1905 38 NA NA NOT_NAMED 1905-09-14 15:00:00 TS 23.4775 -59.2500 main 875 867 P_____________ AL021905 23.4775 -59.2500 TS 42 0 7 335
1905255N20309 1905 38 NA NA NOT_NAMED 1905-09-14 18:00:00 TS 23.8000 -59.4000 40 hurdat_atl main 881 881 O_____________ hurdat_atl AL021905 23.8000 -59.4000 TS 40 0 7 336
1905255N20309 1905 38 NA NA NOT_NAMED 1905-09-14 21:00:00 TS 24.1000 -59.5501 main 890 890 P_____________ AL021905 24.1000 -59.5501 TS 37 0 7 335
1905255N20309 1905 38 NA NA NOT_NAMED 1905-09-15 00:00:00 TS 24.4000 -59.7000 35 hurdat_atl main 906 906 O_____________ hurdat_atl AL021905 24.4000 -59.7000 TS 35 0 7 336
1905255N20309 1905 38 NA NA NOT_NAMED 1905-09-15 03:00:00 TS 24.7075 -59.8500 main 918 918 P_____________ AL021905 24.7075 -59.8500 TS 35 0 7 336
1905255N20309 1905 38 NA NA NOT_NAMED 1905-09-15 06:00:00 TS 25.0000 -60.0000 35 hurdat_atl main 937 937 O_____________ hurdat_atl AL021905 25.0000 -60.0000 TS 35 0 6 334
1905255N20309 1905 38 NA NA NOT_NAMED 1905-09-15 09:00:00 TS 25.2650 -60.1501 main 951 951 P_____________ AL021905 25.2650 -60.1501 TS 35 0 6 331
1905255N20309 1905 38 NA NA NOT_NAMED 1905-09-15 12:00:00 TS 25.5000 -60.3000 35 hurdat_atl main 963 963 O_____________ hurdat_atl AL021905 25.5000 -60.3000 TS 35 0 5 330
1905255N20309 1905 38 NA NA NOT_NAMED 1905-09-15 15:00:00 TS 25.7074 -60.4352 main 975 970 P_____________ AL021905 25.7074 -60.4352 TS 35 0 5 326
1905255N20309 1905 38 NA NA NOT_NAMED 1905-09-15 18:00:00 TS 25.9000 -60.6000 35 hurdat_atl main 983 982 O_____________ hurdat_atl AL021905 25.9000 -60.6000 TS 35 0 5 317
1905255N20309 1905 38 NA NA NOT_NAMED 1905-09-15 21:00:00 TS 26.1001 -60.8425 main 992 987 P_____________ AL021905 26.1001 -60.8425 TS 35 0 6 312
1905255N20309 1905 38 NA NA NOT_NAMED 1905-09-16 00:00:00 TS 26.3000 -61.1000 35 hurdat_atl main 996 996 O_____________ hurdat_atl AL021905 26.3000 -61.1000 TS 35 0 6 315
1905255N20309 1905 38 NA NA NOT_NAMED 1905-09-16 03:00:00 TS 26.5074 -61.3001 main 1007 1007 P_____________ AL021905 26.5074 -61.3001 TS 35 0 5 318
1905255N20309 1905 38 NA NA NOT_NAMED 1905-09-16 06:00:00 TS 26.7000 -61.5000 35 hurdat_atl main 1018 1014 O_____________ hurdat_atl AL021905 26.7000 -61.5000 TS 35 0 5 312
1905255N20309 1905 38 NA NA NOT_NAMED 1905-09-16 09:00:00 TS 26.8650 -61.7425 main 1030 1022 P_____________ AL021905 26.8650 -61.7425 TS 32 -1 5 304
1905255N20309 1905 38 NA NA NOT_NAMED 1905-09-16 12:00:00 TS 27.0000 -62.0000 30 hurdat_atl main 1029 1025 O_____________ hurdat_atl AL021905 27.0000 -62.0000 TD 30 -1 5 298
1905255N20309 1905 38 NA NA NOT_NAMED 1905-09-16 15:00:00 TS 27.1076 -62.2524 main 1029 1026 P_____________ AL021905 27.1076 -62.2524 TD 30 -1 5 294
1905255N20309 1905 38 NA NA NOT_NAMED 1905-09-16 18:00:00 TS 27.2000 -62.5000 30 hurdat_atl main 1033 O_____________ hurdat_atl AL021905 27.2000 -62.5000 TD 30 -1 5 293

About IBTrACS Database

This database is a web-friendly format of International Best Track Archive for Climate Stewardship (IBTrACS), a global best track data archive curated by NOAA dating back to 1842.

Updated: 2021-12-03